createdAt,value
2023-05-23T00:00:19.583Z,9.66
2023-05-23T00:02:48.612Z,9.54
2023-05-23T00:05:18.617Z,9.66
2023-05-23T00:07:46.937Z,9.69
2023-05-23T00:10:15.111Z,9.64
2023-05-23T00:12:43.151Z,9.67
2023-05-23T00:15:11.498Z,9.57
2023-05-23T00:17:40.485Z,9.52
2023-05-23T00:20:12.183Z,9.40
2023-05-23T00:22:44.454Z,9.30
2023-05-23T00:25:12.826Z,9.32
2023-05-23T00:27:40.805Z,9.34
2023-05-23T00:30:09.244Z,9.28
2023-05-23T00:32:37.671Z,9.32
2023-05-23T00:35:06.627Z,9.35
2023-05-23T00:37:34.911Z,9.35
2023-05-23T00:40:03.133Z,9.29
2023-05-23T00:42:33.152Z,9.28
2023-05-23T00:45:01.663Z,9.24
2023-05-23T00:47:30.282Z,9.22
2023-05-23T00:49:58.627Z,9.21
2023-05-23T00:52:27.306Z,9.13
2023-05-23T00:54:55.978Z,9.14
2023-05-23T00:57:24.003Z,9.09
2023-05-23T00:59:54.248Z,8.96
2023-05-23T01:02:22.745Z,8.89
2023-05-23T01:04:54.703Z,8.89
2023-05-23T01:07:23.406Z,8.83
2023-05-23T01:09:51.773Z,8.75
2023-05-23T01:13:01.561Z,8.71
2023-05-23T01:15:52.408Z,8.68
2023-05-23T01:18:43.967Z,8.66
2023-05-23T01:21:19.318Z,8.70
2023-05-23T01:24:17.946Z,8.71
2023-05-23T01:27:08.385Z,8.72
2023-05-23T01:29:47.410Z,8.66
2023-05-23T01:32:19.360Z,8.52
2023-05-23T01:34:49.227Z,8.41
2023-05-23T01:37:19.744Z,8.41
2023-05-23T01:39:48.380Z,8.45
2023-05-23T01:42:16.825Z,8.40
2023-05-23T01:44:46.205Z,8.45
2023-05-23T01:47:16.474Z,8.43
2023-05-23T01:49:46.313Z,8.35
2023-05-23T01:52:15.957Z,8.42
2023-05-23T01:54:45.373Z,8.28
2023-05-23T01:57:17.996Z,8.24
2023-05-23T01:59:47.010Z,8.18
2023-05-23T02:02:15.407Z,8.21
2023-05-23T02:04:43.894Z,8.06
2023-05-23T02:07:12.385Z,7.96
2023-05-23T02:09:40.550Z,8.10
2023-05-23T02:12:09.657Z,8.18
2023-05-23T02:14:39.974Z,8.21
2023-05-23T02:17:12.288Z,8.04
2023-05-23T02:19:40.591Z,7.92
2023-05-23T02:22:08.723Z,7.89
2023-05-23T02:24:36.684Z,7.87
2023-05-23T02:27:05.054Z,7.88
2023-05-23T02:29:34.863Z,7.89
2023-05-23T02:32:03.424Z,7.89
2023-05-23T02:34:32.475Z,7.90
2023-05-23T02:37:00.960Z,7.87
2023-05-23T02:39:29.057Z,7.83
2023-05-23T02:41:58.716Z,7.84
2023-05-23T02:44:27.658Z,7.83
2023-05-23T02:46:55.743Z,7.84
2023-05-23T02:49:24.072Z,7.86
2023-05-23T02:51:52.704Z,7.85
2023-05-23T02:54:21.001Z,7.92
2023-05-23T02:56:50.880Z,8.02
2023-05-23T02:59:19.489Z,8.05
2023-05-23T03:01:47.420Z,7.96
2023-05-23T03:04:16.404Z,8.00
2023-05-23T03:06:44.553Z,7.96
2023-05-23T03:09:12.659Z,7.96
2023-05-23T03:11:41.373Z,8.01
2023-05-23T03:14:09.369Z,8.03
2023-05-23T03:16:37.460Z,8.11
2023-05-23T03:19:05.865Z,8.05
2023-05-23T03:21:35.605Z,8.21
2023-05-23T03:24:03.814Z,8.27
2023-05-23T03:26:32.586Z,8.29
2023-05-23T03:29:02.248Z,8.32
2023-05-23T03:31:30.556Z,8.35
2023-05-23T03:33:58.914Z,8.33
2023-05-23T03:36:28.412Z,8.44
2023-05-23T03:38:56.596Z,8.46
2023-05-23T03:41:25.554Z,8.55
2023-05-23T03:43:54.463Z,8.64
2023-05-23T03:46:22.593Z,8.74
2023-05-23T03:48:51.529Z,8.85
2023-05-23T03:51:19.802Z,8.95
2023-05-23T03:53:47.921Z,9.06
2023-05-23T03:56:16.299Z,9.23
2023-05-23T03:58:44.538Z,9.41
2023-05-23T04:01:15.742Z,9.51
2023-05-23T04:03:44.237Z,9.65
2023-05-23T04:06:14.429Z,9.86
2023-05-23T04:08:45.529Z,10.08
2023-05-23T04:11:13.643Z,10.33
2023-05-23T04:13:42.949Z,10.61
2023-05-23T04:16:12.465Z,11.05
2023-05-23T04:18:40.831Z,11.50
2023-05-23T04:21:09.689Z,11.85
2023-05-23T04:23:45.398Z,12.24
2023-05-23T04:26:14.581Z,12.69
2023-05-23T04:28:50.340Z,13.16
2023-05-23T04:31:19.229Z,13.56
2023-05-23T04:33:48.310Z,13.97
2023-05-23T04:36:18.411Z,14.21
2023-05-23T04:38:52.481Z,14.50
2023-05-23T04:41:24.006Z,14.73
2023-05-23T04:44:18.128Z,15.13
2023-05-23T04:47:09.321Z,15.35
2023-05-23T04:49:54.610Z,15.27
2023-05-23T04:52:24.277Z,15.62
2023-05-23T04:54:54.306Z,15.97
2023-05-23T04:57:23.218Z,16.21
2023-05-23T04:59:51.762Z,16.61
2023-05-23T05:02:20.175Z,16.85
2023-05-23T05:04:48.210Z,17.05
2023-05-23T05:07:17.678Z,17.17
2023-05-23T05:09:46.693Z,17.47
2023-05-23T05:12:14.925Z,17.50
2023-05-23T05:14:43.829Z,17.83
2023-05-23T05:17:12.034Z,18.06
2023-05-23T05:19:50.708Z,17.99
2023-05-23T05:22:18.965Z,18.04
2023-05-23T05:24:47.371Z,18.21
2023-05-23T05:27:16.065Z,18.48
2023-05-23T05:29:44.268Z,18.46
2023-05-23T05:32:12.563Z,18.79
2023-05-23T05:34:40.910Z,18.86
2023-05-23T05:37:09.178Z,19.31
2023-05-23T05:39:37.350Z,19.17
2023-05-23T05:42:07.027Z,19.23
2023-05-23T05:44:36.355Z,19.25
2023-05-23T05:47:04.725Z,19.33
2023-05-23T05:49:33.320Z,19.68
2023-05-23T05:52:01.730Z,20.04
2023-05-23T05:54:30.244Z,19.92
2023-05-23T05:56:59.126Z,20.01
2023-05-23T05:59:29.021Z,20.25
2023-05-23T06:01:57.843Z,20.54
2023-05-23T06:04:26.951Z,20.72
2023-05-23T06:06:56.718Z,20.95
2023-05-23T06:09:25.321Z,21.09
2023-05-23T06:11:54.116Z,21.35
2023-05-23T06:14:22.375Z,21.48
2023-05-23T06:16:51.449Z,21.80
2023-05-23T06:19:19.850Z,21.37
2023-05-23T06:21:48.488Z,21.43
2023-05-23T06:24:17.321Z,21.30
2023-05-23T06:26:45.639Z,21.62
2023-05-23T06:29:14.026Z,21.46
2023-05-23T06:31:42.613Z,21.60
2023-05-23T06:34:11.124Z,21.78
2023-05-23T06:36:40.711Z,22.14
2023-05-23T06:39:12.240Z,22.45
2023-05-23T06:41:40.502Z,22.63
2023-05-23T06:44:08.881Z,22.53
2023-05-23T06:46:45.839Z,22.53
2023-05-23T06:49:15.468Z,22.86
2023-05-23T06:51:46.103Z,23.05
2023-05-23T06:54:14.488Z,23.05
2023-05-23T06:56:43.557Z,22.95
2023-05-23T06:59:11.971Z,22.55
2023-05-23T07:01:41.331Z,22.73
2023-05-23T07:04:09.888Z,22.80
2023-05-23T07:06:40.049Z,22.87
2023-05-23T07:09:09.547Z,22.71
2023-05-23T07:11:39.774Z,22.85
2023-05-23T07:14:09.457Z,23.09
2023-05-23T07:16:42.021Z,22.67
2023-05-23T07:19:10.529Z,22.62
2023-05-23T07:21:45.973Z,23.15
2023-05-23T07:24:17.393Z,23.13
2023-05-23T07:26:45.906Z,22.85
2023-05-23T07:29:14.732Z,23.57
2023-05-23T07:31:44.842Z,23.57
2023-05-23T07:34:15.164Z,23.33
2023-05-23T07:37:03.449Z,23.09
2023-05-23T07:39:39.557Z,23.13
2023-05-23T07:42:08.252Z,23.01
2023-05-23T07:44:37.076Z,23.05
2023-05-23T07:47:06.334Z,23.49
2023-05-23T07:49:36.094Z,23.31
2023-05-23T07:52:07.018Z,23.75
2023-05-23T07:54:36.893Z,23.76
2023-05-23T07:57:07.530Z,23.44
2023-05-23T07:59:36.650Z,23.53
2023-05-23T08:02:05.364Z,23.23
2023-05-23T08:04:34.209Z,23.43
2023-05-23T08:07:06.209Z,23.56
2023-05-23T08:09:57.806Z,23.46
2023-05-23T08:12:26.117Z,23.87
2023-05-23T08:15:04.564Z,23.91
2023-05-23T08:17:45.115Z,24.02
2023-05-23T08:20:13.731Z,24.28
2023-05-23T08:22:42.356Z,23.77
2023-05-23T08:25:11.749Z,24.05
2023-05-23T08:27:42.277Z,24.75
2023-05-23T08:30:29.952Z,25.12
2023-05-23T08:32:58.951Z,25.03
2023-05-23T08:35:29.614Z,24.66
2023-05-23T08:37:58.518Z,24.17
2023-05-23T08:40:31.063Z,24.36
2023-05-23T08:43:07.859Z,24.77
2023-05-23T08:45:41.445Z,25.47
2023-05-23T08:48:13.882Z,25.62
2023-05-23T08:50:49.785Z,25.35
2023-05-23T08:53:23.668Z,24.80
2023-05-23T08:56:03.052Z,24.52
2023-05-23T08:58:44.627Z,24.91
2023-05-23T09:01:15.082Z,25.03
2023-05-23T09:03:44.957Z,24.95
2023-05-23T09:06:29.305Z,25.25
2023-05-23T09:08:59.027Z,25.38
2023-05-23T09:11:27.622Z,25.02
2023-05-23T09:13:58.157Z,25.53
2023-05-23T09:16:36.010Z,25.53
2023-05-23T09:19:12.930Z,25.18
2023-05-23T09:21:45.422Z,25.57
2023-05-23T09:24:22.590Z,25.00
2023-05-23T09:26:51.061Z,24.77
2023-05-23T09:29:21.670Z,25.35
2023-05-23T09:31:50.606Z,25.65
2023-05-23T09:34:18.772Z,26.10
2023-05-23T09:36:47.752Z,26.06
2023-05-23T09:39:17.039Z,25.67
2023-05-23T09:41:48.506Z,25.70
2023-05-23T09:44:24.564Z,26.14
2023-05-23T09:46:53.925Z,26.08
2023-05-23T09:49:22.897Z,25.66
2023-05-23T09:52:01.816Z,25.66
2023-05-23T09:54:30.183Z,25.85
2023-05-23T09:57:02.448Z,26.30
2023-05-23T09:59:35.419Z,26.22
2023-05-23T10:02:07.065Z,25.88
2023-05-23T10:04:36.691Z,26.05
2023-05-23T10:07:19.121Z,25.81
2023-05-23T10:10:04.360Z,25.92
2023-05-23T10:12:50.510Z,25.70
2023-05-23T10:15:20.302Z,25.20
2023-05-23T10:18:07.087Z,25.50
2023-05-23T10:20:40.063Z,25.72
2023-05-23T10:23:10.370Z,26.51
2023-05-23T10:25:41.650Z,25.94
2023-05-23T10:28:10.108Z,25.73
2023-05-23T10:30:39.513Z,26.13
2023-05-23T10:33:09.551Z,26.64
2023-05-23T10:35:46.982Z,26.21
2023-05-23T10:38:42.910Z,25.80
2023-05-23T10:41:27.797Z,25.61
2023-05-23T10:44:24.451Z,25.70
2023-05-23T10:46:59.160Z,26.11
2023-05-23T10:49:51.972Z,26.72
2023-05-23T10:52:21.888Z,26.38
2023-05-23T10:54:55.088Z,26.30
2023-05-23T10:57:30.541Z,26.48
2023-05-23T10:59:59.200Z,26.67
2023-05-23T11:02:29.486Z,26.83
2023-05-23T11:05:24.875Z,27.20
2023-05-23T11:08:15.165Z,27.02
2023-05-23T11:11:03.415Z,27.40
2023-05-23T11:13:53.515Z,27.04
2023-05-23T11:16:42.922Z,27.75
2023-05-23T11:19:20.312Z,27.67
2023-05-23T11:22:02.374Z,26.87
2023-05-23T11:24:51.211Z,26.64
2023-05-23T11:27:46.382Z,26.87
2023-05-23T11:30:18.311Z,27.02
2023-05-23T11:32:57.981Z,26.96
2023-05-23T11:35:26.976Z,26.58
2023-05-23T11:37:58.095Z,26.78
2023-05-23T11:40:42.898Z,27.08
2023-05-23T11:43:18.277Z,27.37
2023-05-23T11:45:47.379Z,27.46
2023-05-23T11:48:18.105Z,27.66
2023-05-23T11:50:54.948Z,27.36
2023-05-23T11:53:25.903Z,27.22
2023-05-23T11:56:05.723Z,27.70
2023-05-23T11:58:39.761Z,27.61
2023-05-23T12:01:10.712Z,27.52
2023-05-23T12:03:50.444Z,27.93
2023-05-23T12:06:25.144Z,28.04
2023-05-23T12:08:53.572Z,27.20
2023-05-23T12:11:24.012Z,27.36
2023-05-23T12:13:54.157Z,27.43
2023-05-23T12:16:22.349Z,27.58
2023-05-23T12:18:50.870Z,27.39
2023-05-23T12:21:19.523Z,27.35
2023-05-23T12:23:48.700Z,27.51
2023-05-23T12:26:17.316Z,27.51
2023-05-23T12:28:46.283Z,27.91
2023-05-23T12:31:26.484Z,27.65
2023-05-23T12:33:55.052Z,27.32
2023-05-23T12:36:32.611Z,28.00
2023-05-23T12:39:06.247Z,28.21
2023-05-23T12:41:34.753Z,28.11
2023-05-23T12:44:04.806Z,28.35
2023-05-23T12:46:33.201Z,27.74
2023-05-23T12:49:02.358Z,27.50
2023-05-23T12:51:31.140Z,27.52
2023-05-23T12:54:00.555Z,27.35
2023-05-23T12:56:29.523Z,27.86
2023-05-23T12:58:58.006Z,28.38
2023-05-23T13:01:27.242Z,27.66
2023-05-23T13:03:56.461Z,27.48
2023-05-23T13:06:25.040Z,27.68
2023-05-23T13:08:55.538Z,27.72
2023-05-23T13:11:24.493Z,28.08
2023-05-23T13:13:52.940Z,28.09
2023-05-23T13:16:22.047Z,28.34
2023-05-23T13:18:50.267Z,28.44
2023-05-23T13:21:19.013Z,28.13
2023-05-23T13:23:47.456Z,28.69
2023-05-23T13:26:16.163Z,28.89
2023-05-23T13:28:44.408Z,29.21
2023-05-23T13:31:13.411Z,29.30
2023-05-23T13:33:42.075Z,29.56
2023-05-23T13:36:10.142Z,29.38
2023-05-23T13:38:38.846Z,28.12
2023-05-23T13:41:07.300Z,28.21
2023-05-23T13:43:35.661Z,28.73
2023-05-23T13:46:04.320Z,28.50
2023-05-23T13:48:32.471Z,28.59
2023-05-23T13:51:01.883Z,28.35
2023-05-23T13:53:30.670Z,28.34
2023-05-23T13:55:59.183Z,28.80
2023-05-23T13:58:30.077Z,28.95
2023-05-23T14:00:59.926Z,29.22
2023-05-23T14:03:28.060Z,29.07
2023-05-23T14:05:56.174Z,29.16
2023-05-23T14:08:24.548Z,29.11
2023-05-23T14:10:52.676Z,28.47
2023-05-23T14:13:22.390Z,28.15
2023-05-23T14:15:52.235Z,28.24
2023-05-23T14:18:20.694Z,28.70
2023-05-23T14:20:48.727Z,29.00
2023-05-23T14:23:17.513Z,29.41
2023-05-23T14:25:46.132Z,28.38
2023-05-23T14:28:14.668Z,29.32
2023-05-23T14:30:43.076Z,28.87
2023-05-23T14:33:11.451Z,28.35
2023-05-23T14:35:40.083Z,28.69
2023-05-23T14:38:08.746Z,28.73
2023-05-23T14:40:37.082Z,28.75
2023-05-23T14:43:05.735Z,28.30
2023-05-23T14:45:34.282Z,28.14
2023-05-23T14:48:02.705Z,28.36
2023-05-23T14:50:31.018Z,27.92
2023-05-23T14:53:00.062Z,27.92
2023-05-23T14:55:28.647Z,27.42
2023-05-23T14:57:57.855Z,27.87
2023-05-23T15:00:26.275Z,28.07
2023-05-23T15:02:54.535Z,28.54
2023-05-23T15:05:22.945Z,28.50
2023-05-23T15:07:51.425Z,28.48
2023-05-23T15:10:20.040Z,28.11
2023-05-23T15:12:48.372Z,27.91
2023-05-23T15:15:23.346Z,27.69
2023-05-23T15:17:52.492Z,26.97
2023-05-23T15:20:21.229Z,26.88
2023-05-23T15:22:49.378Z,26.65
2023-05-23T15:25:20.430Z,26.20
2023-05-23T15:27:56.455Z,26.35
2023-05-23T15:30:26.225Z,26.34
2023-05-23T15:32:57.874Z,26.51
2023-05-23T15:35:27.520Z,26.08
2023-05-23T15:37:55.672Z,26.06
2023-05-23T15:40:23.976Z,25.81
2023-05-23T15:42:52.023Z,25.70
2023-05-23T15:45:20.049Z,25.75
2023-05-23T15:47:48.366Z,26.19
2023-05-23T15:50:19.055Z,26.06
2023-05-23T15:52:47.066Z,25.61
2023-05-23T15:55:15.258Z,25.35
2023-05-23T15:57:43.360Z,25.31
2023-05-23T16:00:12.448Z,25.15
2023-05-23T16:02:41.230Z,25.10
2023-05-23T16:05:09.664Z,25.05
2023-05-23T16:07:37.673Z,25.01
2023-05-23T16:10:06.466Z,24.80
2023-05-23T16:12:36.049Z,24.54
2023-05-23T16:15:04.518Z,24.72
2023-05-23T16:17:32.819Z,24.73
2023-05-23T16:20:03.320Z,24.69
2023-05-23T16:22:31.846Z,24.76
2023-05-23T16:25:00.060Z,24.90
2023-05-23T16:27:28.401Z,25.07
2023-05-23T16:29:56.575Z,25.11
2023-05-23T16:32:24.881Z,25.36
2023-05-23T16:34:54.650Z,25.32
2023-05-23T16:37:23.659Z,25.13
2023-05-23T16:39:51.912Z,25.12
2023-05-23T16:42:20.466Z,24.91
2023-05-23T16:44:48.667Z,24.98
2023-05-23T16:47:17.570Z,24.80
2023-05-23T16:49:45.840Z,24.78
2023-05-23T16:52:14.288Z,24.74
2023-05-23T16:54:42.328Z,24.44
2023-05-23T16:57:11.927Z,24.33
2023-05-23T16:59:41.483Z,24.49
2023-05-23T17:02:13.921Z,24.34
2023-05-23T17:04:42.625Z,24.34
2023-05-23T17:07:11.126Z,24.20
2023-05-23T17:09:41.070Z,23.97
2023-05-23T17:12:09.435Z,23.79
2023-05-23T17:14:37.717Z,23.85
2023-05-23T17:17:07.013Z,24.10
2023-05-23T17:19:36.140Z,24.41
2023-05-23T17:22:06.853Z,24.26
2023-05-23T17:24:37.174Z,24.13
2023-05-23T17:27:06.096Z,23.84
2023-05-23T17:29:34.266Z,23.72
2023-05-23T17:32:02.797Z,23.44
2023-05-23T17:34:31.148Z,23.17
2023-05-23T17:36:59.293Z,22.84
2023-05-23T17:39:27.935Z,22.72
2023-05-23T17:41:56.437Z,22.49
2023-05-23T17:44:24.795Z,22.26
2023-05-23T17:46:54.357Z,22.18
2023-05-23T17:49:23.323Z,22.09
2023-05-23T17:51:52.152Z,22.00
2023-05-23T17:54:21.714Z,21.89
2023-05-23T17:56:51.103Z,21.72
2023-05-23T17:59:19.745Z,21.61
2023-05-23T18:01:48.685Z,21.51
2023-05-23T18:04:17.515Z,21.45
2023-05-23T18:06:46.858Z,21.33
2023-05-23T18:09:17.333Z,21.17
2023-05-23T18:11:46.724Z,21.07
2023-05-23T18:14:16.330Z,20.95
2023-05-23T18:16:45.546Z,20.85
2023-05-23T18:19:14.811Z,20.73
2023-05-23T18:21:43.152Z,20.63
2023-05-23T18:24:12.148Z,20.53
2023-05-23T18:26:43.545Z,20.40
2023-05-23T18:29:12.736Z,20.26
2023-05-23T18:31:41.832Z,20.13
2023-05-23T18:34:10.672Z,20.05
2023-05-23T18:36:39.879Z,19.99
2023-05-23T18:39:08.878Z,19.89
2023-05-23T18:41:37.670Z,19.85
2023-05-23T18:44:07.138Z,19.75
2023-05-23T18:46:37.138Z,19.69
2023-05-23T18:49:07.859Z,19.58
2023-05-23T18:51:37.595Z,19.50
2023-05-23T18:54:06.781Z,19.34
2023-05-23T18:56:37.267Z,19.21
2023-05-23T18:59:06.253Z,19.12
2023-05-23T19:01:35.356Z,19.08
2023-05-23T19:04:06.180Z,18.92
2023-05-23T19:06:35.810Z,18.80
2023-05-23T19:09:09.557Z,18.70
2023-05-23T19:11:38.371Z,18.60
2023-05-23T19:14:06.793Z,18.39
2023-05-23T19:16:36.325Z,18.19
2023-05-23T19:19:05.879Z,18.14
2023-05-23T19:21:34.355Z,17.89
2023-05-23T19:24:02.811Z,17.68
2023-05-23T19:26:31.589Z,17.59
2023-05-23T19:29:00.543Z,17.51
2023-05-23T19:31:28.985Z,17.49
2023-05-23T19:33:57.494Z,17.40
2023-05-23T19:36:26.202Z,17.31
2023-05-23T19:38:54.993Z,17.28
2023-05-23T19:41:23.756Z,17.17
2023-05-23T19:43:52.686Z,17.19
2023-05-23T19:46:22.467Z,17.19
2023-05-23T19:48:52.609Z,17.08
2023-05-23T19:51:21.378Z,17.08
2023-05-23T19:53:49.668Z,16.77
2023-05-23T19:56:18.657Z,16.77
2023-05-23T19:58:48.319Z,16.56
2023-05-23T20:01:16.744Z,16.61
2023-05-23T20:03:45.250Z,16.59
2023-05-23T20:06:14.004Z,16.65
2023-05-23T20:08:42.557Z,16.59
2023-05-23T20:11:11.007Z,16.64
2023-05-23T20:13:39.596Z,16.79
2023-05-23T20:16:10.786Z,16.91
2023-05-23T20:18:39.549Z,16.85
2023-05-23T20:21:08.276Z,16.87
2023-05-23T20:23:36.544Z,16.82
2023-05-23T20:26:05.375Z,16.72
2023-05-23T20:28:34.323Z,16.70
2023-05-23T20:31:02.821Z,16.74
2023-05-23T20:33:31.497Z,16.71
2023-05-23T20:35:59.858Z,16.64
2023-05-23T20:38:29.150Z,16.75
2023-05-23T20:40:57.560Z,16.82
2023-05-23T20:43:26.058Z,16.84
2023-05-23T20:45:55.091Z,16.85
2023-05-23T20:48:23.330Z,16.84
2023-05-23T20:50:51.688Z,16.86
2023-05-23T20:53:20.114Z,16.91
2023-05-23T20:55:49.151Z,16.91
2023-05-23T20:58:18.067Z,16.92
2023-05-23T21:00:46.587Z,16.86
2023-05-23T21:03:15.301Z,16.82
2023-05-23T21:05:44.102Z,16.83
2023-05-23T21:08:12.562Z,16.82
2023-05-23T21:10:41.913Z,16.80
2023-05-23T21:13:11.194Z,16.78
2023-05-23T21:15:39.587Z,16.77
2023-05-23T21:18:08.176Z,16.73
2023-05-23T21:20:37.073Z,16.73
2023-05-23T21:23:05.726Z,16.80
2023-05-23T21:25:34.154Z,16.78
2023-05-23T21:28:02.391Z,16.77
2023-05-23T21:30:30.655Z,16.73
2023-05-23T21:32:59.221Z,16.69
2023-05-23T21:35:27.618Z,16.64
2023-05-23T21:37:56.106Z,16.61
2023-05-23T21:40:26.001Z,16.55
2023-05-23T21:42:54.565Z,16.51
2023-05-23T21:45:22.781Z,16.49
2023-05-23T21:47:51.113Z,16.39
2023-05-23T21:50:19.463Z,16.37
2023-05-23T21:52:47.612Z,16.30
2023-05-23T21:55:15.953Z,16.27
2023-05-23T21:57:44.284Z,16.27
2023-05-23T22:00:13.391Z,16.24
2023-05-23T22:02:42.103Z,16.17
2023-05-23T22:05:10.569Z,16.01
2023-05-23T22:07:38.648Z,15.94
2023-05-23T22:10:08.034Z,15.92
2023-05-23T22:12:36.470Z,15.91
2023-05-23T22:15:06.554Z,15.95
2023-05-23T22:17:35.317Z,15.95
2023-05-23T22:20:05.552Z,15.93
2023-05-23T22:22:33.767Z,15.84
2023-05-23T22:25:02.178Z,15.84
2023-05-23T22:27:30.403Z,15.76
2023-05-23T22:29:58.697Z,15.75
2023-05-23T22:32:27.216Z,15.70
2023-05-23T22:34:56.111Z,15.70
2023-05-23T22:37:24.362Z,15.69
2023-05-23T22:39:52.963Z,15.65
2023-05-23T22:42:21.249Z,15.63
2023-05-23T22:44:49.694Z,15.63
2023-05-23T22:47:18.424Z,15.65
2023-05-23T22:49:47.144Z,15.54
2023-05-23T22:52:15.336Z,15.44
2023-05-23T22:54:44.021Z,15.37
2023-05-23T22:57:12.404Z,15.41
2023-05-23T22:59:40.716Z,15.36
2023-05-23T23:02:09.010Z,15.33
2023-05-23T23:04:38.315Z,15.38
2023-05-23T23:07:06.404Z,15.45
2023-05-23T23:09:35.139Z,15.50
2023-05-23T23:12:03.429Z,15.43
2023-05-23T23:14:31.450Z,15.35
2023-05-23T23:16:59.849Z,15.32
2023-05-23T23:19:29.856Z,15.45
2023-05-23T23:21:57.913Z,15.33
2023-05-23T23:24:26.459Z,15.22
2023-05-23T23:26:54.852Z,15.25
2023-05-23T23:29:23.076Z,15.20
2023-05-23T23:31:51.312Z,15.15
2023-05-23T23:34:19.799Z,15.06
2023-05-23T23:36:48.072Z,15.08
2023-05-23T23:39:16.623Z,15.07
2023-05-23T23:41:45.095Z,15.03
2023-05-23T23:44:13.224Z,14.97
2023-05-23T23:46:41.528Z,14.84
2023-05-23T23:49:09.797Z,14.81
2023-05-23T23:51:37.828Z,14.77
2023-05-23T23:54:06.582Z,14.67
2023-05-23T23:56:34.640Z,14.51
2023-05-23T23:59:02.651Z,14.33
